sensor_id;sensor_type;location;lat;lon;timestamp;P1;durP1;ratioP1;P2;durP2;ratioP2
13244;SDS011;6689;53.400;12.486;2023-08-01T00:00:30;4.70;;;3.38;;
13244;SDS011;6689;53.400;12.486;2023-08-01T00:02:57;7.93;;;3.60;;
13244;SDS011;6689;53.400;12.486;2023-08-01T00:05:25;3.88;;;3.20;;
13244;SDS011;6689;53.400;12.486;2023-08-01T00:07:52;5.07;;;3.50;;
13244;SDS011;6689;53.400;12.486;2023-08-01T00:10:20;4.47;;;3.63;;
13244;SDS011;6689;53.400;12.486;2023-08-01T00:12:47;5.22;;;3.40;;
13244;SDS011;6689;53.400;12.486;2023-08-01T00:15:16;8.88;;;3.95;;
13244;SDS011;6689;53.400;12.486;2023-08-01T00:17:43;5.53;;;3.65;;
13244;SDS011;6689;53.400;12.486;2023-08-01T00:20:11;4.65;;;3.35;;
13244;SDS011;6689;53.400;12.486;2023-08-01T00:22:38;8.95;;;4.13;;
13244;SDS011;6689;53.400;12.486;2023-08-01T00:25:05;5.07;;;3.47;;
13244;SDS011;6689;53.400;12.486;2023-08-01T00:27:33;9.45;;;4.68;;
13244;SDS011;6689;53.400;12.486;2023-08-01T00:30:01;6.30;;;3.53;;
13244;SDS011;6689;53.400;12.486;2023-08-01T00:32:29;6.53;;;3.92;;
13244;SDS011;6689;53.400;12.486;2023-08-01T00:34:57;7.10;;;3.45;;
13244;SDS011;6689;53.400;12.486;2023-08-01T00:37:25;5.93;;;3.17;;
13244;SDS011;6689;53.400;12.486;2023-08-01T00:39:52;6.70;;;3.90;;
13244;SDS011;6689;53.400;12.486;2023-08-01T00:42:19;6.53;;;3.88;;
13244;SDS011;6689;53.400;12.486;2023-08-01T00:44:46;6.40;;;3.90;;
13244;SDS011;6689;53.400;12.486;2023-08-01T00:47:14;4.97;;;3.92;;
13244;SDS011;6689;53.400;12.486;2023-08-01T00:49:43;6.00;;;3.90;;
13244;SDS011;6689;53.400;12.486;2023-08-01T00:52:10;4.78;;;4.00;;
13244;SDS011;6689;53.400;12.486;2023-08-01T00:54:38;4.97;;;3.33;;
13244;SDS011;6689;53.400;12.486;2023-08-01T00:57:06;6.32;;;3.83;;
13244;SDS011;6689;53.400;12.486;2023-08-01T00:59:34;5.15;;;3.53;;
13244;SDS011;6689;53.400;12.486;2023-08-01T01:02:01;6.57;;;3.85;;
13244;SDS011;6689;53.400;12.486;2023-08-01T01:04:29;6.82;;;3.47;;
13244;SDS011;6689;53.400;12.486;2023-08-01T01:07:00;7.10;;;4.47;;
13244;SDS011;6689;53.400;12.486;2023-08-01T01:09:30;8.05;;;3.45;;
13244;SDS011;6689;53.400;12.486;2023-08-01T01:11:58;8.75;;;4.00;;
13244;SDS011;6689;53.400;12.486;2023-08-01T01:14:30;6.30;;;3.00;;
13244;SDS011;6689;53.400;12.486;2023-08-01T01:16:58;6.53;;;3.67;;
13244;SDS011;6689;53.400;12.486;2023-08-01T01:22:22;5.63;;;3.93;;
13244;SDS011;6689;53.400;12.486;2023-08-01T01:24:51;6.47;;;3.97;;
13244;SDS011;6689;53.400;12.486;2023-08-01T01:27:19;5.60;;;4.38;;
13244;SDS011;6689;53.400;12.486;2023-08-01T01:29:47;8.77;;;3.72;;
13244;SDS011;6689;53.400;12.486;2023-08-01T01:32:16;6.95;;;4.13;;
13244;SDS011;6689;53.400;12.486;2023-08-01T01:34:44;6.05;;;3.80;;
13244;SDS011;6689;53.400;12.486;2023-08-01T01:37:11;7.47;;;4.10;;
13244;SDS011;6689;53.400;12.486;2023-08-01T01:39:40;6.70;;;4.00;;
13244;SDS011;6689;53.400;12.486;2023-08-01T01:42:08;12.45;;;4.68;;
13244;SDS011;6689;53.400;12.486;2023-08-01T01:44:43;6.38;;;4.70;;
13244;SDS011;6689;53.400;12.486;2023-08-01T01:47:10;7.10;;;5.40;;
13244;SDS011;6689;53.400;12.486;2023-08-01T01:49:38;8.27;;;5.32;;
13244;SDS011;6689;53.400;12.486;2023-08-01T01:52:05;7.78;;;5.47;;
13244;SDS011;6689;53.400;12.486;2023-08-01T01:54:32;10.25;;;5.35;;
13244;SDS011;6689;53.400;12.486;2023-08-01T01:57:02;9.52;;;5.93;;
13244;SDS011;6689;53.400;12.486;2023-08-01T01:59:29;13.20;;;6.38;;
13244;SDS011;6689;53.400;12.486;2023-08-01T02:01:57;7.45;;;6.03;;
13244;SDS011;6689;53.400;12.486;2023-08-01T02:04:26;11.32;;;5.70;;
13244;SDS011;6689;53.400;12.486;2023-08-01T02:06:53;6.60;;;5.20;;
13244;SDS011;6689;53.400;12.486;2023-08-01T02:09:20;8.55;;;5.75;;
13244;SDS011;6689;53.400;12.486;2023-08-01T02:11:47;7.97;;;4.78;;
13244;SDS011;6689;53.400;12.486;2023-08-01T02:14:16;4.70;;;3.90;;
13244;SDS011;6689;53.400;12.486;2023-08-01T02:16:44;7.15;;;4.20;;
13244;SDS011;6689;53.400;12.486;2023-08-01T02:19:11;5.95;;;3.75;;
13244;SDS011;6689;53.400;12.486;2023-08-01T02:21:40;7.20;;;4.72;;
13244;SDS011;6689;53.400;12.486;2023-08-01T02:24:08;6.15;;;3.40;;
13244;SDS011;6689;53.400;12.486;2023-08-01T02:26:36;4.43;;;3.25;;
13244;SDS011;6689;53.400;12.486;2023-08-01T02:29:05;9.35;;;3.63;;
13244;SDS011;6689;53.400;12.486;2023-08-01T02:31:34;6.38;;;3.20;;
13244;SDS011;6689;53.400;12.486;2023-08-01T02:34:02;4.88;;;3.25;;
13244;SDS011;6689;53.400;12.486;2023-08-01T02:36:30;4.03;;;2.78;;
13244;SDS011;6689;53.400;12.486;2023-08-01T02:38:58;3.88;;;2.70;;
13244;SDS011;6689;53.400;12.486;2023-08-01T02:41:25;6.50;;;2.72;;
13244;SDS011;6689;53.400;12.486;2023-08-01T02:43:53;5.07;;;2.50;;
13244;SDS011;6689;53.400;12.486;2023-08-01T02:46:20;4.05;;;2.80;;
13244;SDS011;6689;53.400;12.486;2023-08-01T02:48:49;6.82;;;2.92;;
13244;SDS011;6689;53.400;12.486;2023-08-01T02:51:17;4.15;;;2.53;;
13244;SDS011;6689;53.400;12.486;2023-08-01T02:53:44;8.82;;;3.15;;
13244;SDS011;6689;53.400;12.486;2023-08-01T02:56:11;4.72;;;2.55;;
13244;SDS011;6689;53.400;12.486;2023-08-01T02:58:38;4.10;;;2.35;;
13244;SDS011;6689;53.400;12.486;2023-08-01T03:01:07;5.40;;;2.70;;
13244;SDS011;6689;53.400;12.486;2023-08-01T03:03:38;4.65;;;2.63;;
13244;SDS011;6689;53.400;12.486;2023-08-01T03:06:09;4.13;;;2.88;;
13244;SDS011;6689;53.400;12.486;2023-08-01T03:08:37;3.55;;;2.80;;
13244;SDS011;6689;53.400;12.486;2023-08-01T03:11:05;4.53;;;2.78;;
13244;SDS011;6689;53.400;12.486;2023-08-01T03:13:33;3.55;;;2.72;;
13244;SDS011;6689;53.400;12.486;2023-08-01T03:16:04;7.40;;;2.80;;
13244;SDS011;6689;53.400;12.486;2023-08-01T03:18:31;5.20;;;2.55;;
13244;SDS011;6689;53.400;12.486;2023-08-01T03:21:00;4.80;;;2.92;;
13244;SDS011;6689;53.400;12.486;2023-08-01T03:23:30;5.50;;;2.80;;
13244;SDS011;6689;53.400;12.486;2023-08-01T03:25:57;4.15;;;2.72;;
13244;SDS011;6689;53.400;12.486;2023-08-01T03:28:27;6.13;;;3.10;;
13244;SDS011;6689;53.400;12.486;2023-08-01T03:30:54;5.93;;;2.83;;
13244;SDS011;6689;53.400;12.486;2023-08-01T03:33:22;4.00;;;2.60;;
13244;SDS011;6689;53.400;12.486;2023-08-01T03:35:49;6.00;;;2.78;;
13244;SDS011;6689;53.400;12.486;2023-08-01T03:38:17;4.60;;;3.05;;
13244;SDS011;6689;53.400;12.486;2023-08-01T03:40:46;5.25;;;3.47;;
13244;SDS011;6689;53.400;12.486;2023-08-01T03:43:13;3.75;;;2.65;;
13244;SDS011;6689;53.400;12.486;2023-08-01T03:45:40;3.85;;;2.72;;
13244;SDS011;6689;53.400;12.486;2023-08-01T03:48:08;6.15;;;2.80;;
13244;SDS011;6689;53.400;12.486;2023-08-01T03:50:36;4.22;;;2.67;;
13244;SDS011;6689;53.400;12.486;2023-08-01T03:53:04;4.43;;;2.88;;
13244;SDS011;6689;53.400;12.486;2023-08-01T03:55:32;4.78;;;3.33;;
13244;SDS011;6689;53.400;12.486;2023-08-01T03:58:01;3.58;;;2.63;;
13244;SDS011;6689;53.400;12.486;2023-08-01T04:00:28;4.35;;;2.70;;
13244;SDS011;6689;53.400;12.486;2023-08-01T04:02:57;3.83;;;2.75;;
13244;SDS011;6689;53.400;12.486;2023-08-01T04:05:26;4.55;;;2.67;;
13244;SDS011;6689;53.400;12.486;2023-08-01T04:07:54;6.20;;;2.88;;
13244;SDS011;6689;53.400;12.486;2023-08-01T04:10:21;4.18;;;2.45;;
13244;SDS011;6689;53.400;12.486;2023-08-01T04:12:49;5.60;;;2.92;;
13244;SDS011;6689;53.400;12.486;2023-08-01T04:15:18;8.88;;;3.47;;
13244;SDS011;6689;53.400;12.486;2023-08-01T04:17:46;4.43;;;2.40;;
13244;SDS011;6689;53.400;12.486;2023-08-01T04:20:13;4.65;;;2.42;;
13244;SDS011;6689;53.400;12.486;2023-08-01T04:22:40;4.15;;;2.35;;
13244;SDS011;6689;53.400;12.486;2023-08-01T04:25:08;3.75;;;2.15;;
13244;SDS011;6689;53.400;12.486;2023-08-01T04:27:35;3.20;;;2.00;;
13244;SDS011;6689;53.400;12.486;2023-08-01T04:30:03;3.90;;;2.50;;
13244;SDS011;6689;53.400;12.486;2023-08-01T04:32:32;2.88;;;2.40;;
13244;SDS011;6689;53.400;12.486;2023-08-01T04:35:00;2.80;;;2.20;;
13244;SDS011;6689;53.400;12.486;2023-08-01T04:37:28;3.75;;;2.30;;
13244;SDS011;6689;53.400;12.486;2023-08-01T04:39:55;3.10;;;2.10;;
13244;SDS011;6689;53.400;12.486;2023-08-01T04:42:23;3.63;;;2.30;;
13244;SDS011;6689;53.400;12.486;2023-08-01T04:44:50;4.15;;;1.88;;
13244;SDS011;6689;53.400;12.486;2023-08-01T04:47:17;2.80;;;2.33;;
13244;SDS011;6689;53.400;12.486;2023-08-01T04:49:46;3.72;;;2.20;;
13244;SDS011;6689;53.400;12.486;2023-08-01T04:52:13;7.10;;;2.78;;
13244;SDS011;6689;53.400;12.486;2023-08-01T04:54:41;2.53;;;2.13;;
13244;SDS011;6689;53.400;12.486;2023-08-01T04:57:08;5.70;;;2.53;;
13244;SDS011;6689;53.400;12.486;2023-08-01T04:59:36;4.30;;;2.83;;
13244;SDS011;6689;53.400;12.486;2023-08-01T05:02:03;4.13;;;2.28;;
13244;SDS011;6689;53.400;12.486;2023-08-01T05:04:30;3.10;;;2.72;;
13244;SDS011;6689;53.400;12.486;2023-08-01T05:06:59;4.63;;;2.50;;
13244;SDS011;6689;53.400;12.486;2023-08-01T05:09:26;2.70;;;2.40;;
13244;SDS011;6689;53.400;12.486;2023-08-01T05:11:54;3.55;;;2.20;;
13244;SDS011;6689;53.400;12.486;2023-08-01T05:14:21;5.22;;;2.40;;
13244;SDS011;6689;53.400;12.486;2023-08-01T05:16:49;3.88;;;2.38;;
13244;SDS011;6689;53.400;12.486;2023-08-01T05:19:16;5.05;;;2.55;;
13244;SDS011;6689;53.400;12.486;2023-08-01T05:21:43;4.22;;;2.65;;
13244;SDS011;6689;53.400;12.486;2023-08-01T05:24:13;8.52;;;2.38;;
13244;SDS011;6689;53.400;12.486;2023-08-01T05:26:40;6.47;;;2.55;;
13244;SDS011;6689;53.400;12.486;2023-08-01T05:29:09;5.78;;;2.40;;
13244;SDS011;6689;53.400;12.486;2023-08-01T05:31:36;3.13;;;2.03;;
13244;SDS011;6689;53.400;12.486;2023-08-01T05:34:04;2.78;;;2.25;;
13244;SDS011;6689;53.400;12.486;2023-08-01T05:36:31;3.60;;;3.10;;
13244;SDS011;6689;53.400;12.486;2023-08-01T05:38:59;3.78;;;2.63;;
13244;SDS011;6689;53.400;12.486;2023-08-01T05:41:27;3.72;;;2.80;;
13244;SDS011;6689;53.400;12.486;2023-08-01T05:43:55;7.07;;;2.90;;
13244;SDS011;6689;53.400;12.486;2023-08-01T05:46:22;6.35;;;2.88;;
13244;SDS011;6689;53.400;12.486;2023-08-01T05:48:50;5.47;;;2.95;;
13244;SDS011;6689;53.400;12.486;2023-08-01T05:51:17;4.43;;;3.17;;
13244;SDS011;6689;53.400;12.486;2023-08-01T05:53:45;5.35;;;2.67;;
13244;SDS011;6689;53.400;12.486;2023-08-01T05:56:12;3.85;;;2.63;;
13244;SDS011;6689;53.400;12.486;2023-08-01T05:58:41;3.45;;;2.75;;
13244;SDS011;6689;53.400;12.486;2023-08-01T06:01:11;4.18;;;3.10;;
13244;SDS011;6689;53.400;12.486;2023-08-01T06:03:38;6.95;;;3.28;;
13244;SDS011;6689;53.400;12.486;2023-08-01T06:06:06;4.03;;;3.00;;
13244;SDS011;6689;53.400;12.486;2023-08-01T06:08:33;8.63;;;3.50;;
13244;SDS011;6689;53.400;12.486;2023-08-01T06:11:00;6.18;;;2.60;;
13244;SDS011;6689;53.400;12.486;2023-08-01T06:13:30;3.75;;;2.53;;
13244;SDS011;6689;53.400;12.486;2023-08-01T06:15:59;3.70;;;2.47;;
13244;SDS011;6689;53.400;12.486;2023-08-01T06:18:26;4.20;;;3.15;;
13244;SDS011;6689;53.400;12.486;2023-08-01T06:20:54;4.50;;;2.20;;
13244;SDS011;6689;53.400;12.486;2023-08-01T06:23:22;6.50;;;2.97;;
13244;SDS011;6689;53.400;12.486;2023-08-01T06:25:49;4.18;;;2.65;;
13244;SDS011;6689;53.400;12.486;2023-08-01T06:28:17;3.13;;;2.03;;
13244;SDS011;6689;53.400;12.486;2023-08-01T06:30:46;6.28;;;2.20;;
13244;SDS011;6689;53.400;12.486;2023-08-01T06:33:15;4.65;;;2.20;;
13244;SDS011;6689;53.400;12.486;2023-08-01T06:35:44;4.40;;;2.60;;
13244;SDS011;6689;53.400;12.486;2023-08-01T06:38:11;4.78;;;2.60;;
13244;SDS011;6689;53.400;12.486;2023-08-01T06:40:38;3.13;;;2.42;;
13244;SDS011;6689;53.400;12.486;2023-08-01T06:43:07;4.85;;;2.90;;
13244;SDS011;6689;53.400;12.486;2023-08-01T06:45:34;4.90;;;2.40;;
13244;SDS011;6689;53.400;12.486;2023-08-01T06:48:02;3.78;;;2.70;;
13244;SDS011;6689;53.400;12.486;2023-08-01T06:50:30;6.57;;;3.13;;
13244;SDS011;6689;53.400;12.486;2023-08-01T06:52:57;4.63;;;3.10;;
13244;SDS011;6689;53.400;12.486;2023-08-01T06:55:26;3.15;;;2.83;;
13244;SDS011;6689;53.400;12.486;2023-08-01T06:57:54;4.35;;;3.53;;
13244;SDS011;6689;53.400;12.486;2023-08-01T07:00:21;3.83;;;2.85;;
13244;SDS011;6689;53.400;12.486;2023-08-01T07:02:49;3.58;;;2.40;;
13244;SDS011;6689;53.400;12.486;2023-08-01T07:05:16;3.13;;;2.17;;
13244;SDS011;6689;53.400;12.486;2023-08-01T07:07:45;5.10;;;2.50;;
13244;SDS011;6689;53.400;12.486;2023-08-01T07:10:12;6.22;;;2.72;;
13244;SDS011;6689;53.400;12.486;2023-08-01T07:12:41;2.70;;;2.30;;
13244;SDS011;6689;53.400;12.486;2023-08-01T07:15:14;4.95;;;2.47;;
13244;SDS011;6689;53.400;12.486;2023-08-01T07:17:43;4.78;;;2.45;;
13244;SDS011;6689;53.400;12.486;2023-08-01T07:20:10;4.07;;;2.70;;
13244;SDS011;6689;53.400;12.486;2023-08-01T07:22:38;4.88;;;2.28;;
13244;SDS011;6689;53.400;12.486;2023-08-01T07:25:08;3.95;;;2.45;;
13244;SDS011;6689;53.400;12.486;2023-08-01T07:27:38;2.90;;;2.20;;
13244;SDS011;6689;53.400;12.486;2023-08-01T07:30:06;5.20;;;2.70;;
13244;SDS011;6689;53.400;12.486;2023-08-01T07:32:35;3.83;;;2.40;;
13244;SDS011;6689;53.400;12.486;2023-08-01T07:35:03;4.30;;;2.40;;
13244;SDS011;6689;53.400;12.486;2023-08-01T07:37:32;2.65;;;2.15;;
13244;SDS011;6689;53.400;12.486;2023-08-01T07:40:00;4.38;;;2.10;;
13244;SDS011;6689;53.400;12.486;2023-08-01T07:42:30;2.10;;;1.45;;
13244;SDS011;6689;53.400;12.486;2023-08-01T07:44:58;2.83;;;1.50;;
13244;SDS011;6689;53.400;12.486;2023-08-01T07:47:25;3.47;;;1.50;;
13244;SDS011;6689;53.400;12.486;2023-08-01T07:49:52;2.03;;;1.45;;
13244;SDS011;6689;53.400;12.486;2023-08-01T07:52:20;2.15;;;1.30;;
13244;SDS011;6689;53.400;12.486;2023-08-01T07:54:47;1.90;;;1.08;;
13244;SDS011;6689;53.400;12.486;2023-08-01T07:57:14;4.55;;;1.48;;
13244;SDS011;6689;53.400;12.486;2023-08-01T07:59:43;1.92;;;1.48;;
13244;SDS011;6689;53.400;12.486;2023-08-01T08:02:11;2.35;;;1.35;;
13244;SDS011;6689;53.400;12.486;2023-08-01T08:04:38;1.80;;;1.38;;
13244;SDS011;6689;53.400;12.486;2023-08-01T08:07:05;2.50;;;1.58;;
13244;SDS011;6689;53.400;12.486;2023-08-01T08:09:32;2.08;;;1.35;;
13244;SDS011;6689;53.400;12.486;2023-08-01T08:12:03;3.42;;;1.55;;
13244;SDS011;6689;53.400;12.486;2023-08-01T08:14:32;2.25;;;1.55;;
13244;SDS011;6689;53.400;12.486;2023-08-01T08:17:01;2.25;;;1.63;;
13244;SDS011;6689;53.400;12.486;2023-08-01T08:19:28;1.85;;;1.30;;
13244;SDS011;6689;53.400;12.486;2023-08-01T08:21:55;1.98;;;1.30;;
13244;SDS011;6689;53.400;12.486;2023-08-01T08:24:23;2.53;;;1.60;;
13244;SDS011;6689;53.400;12.486;2023-08-01T08:26:51;5.28;;;1.67;;
13244;SDS011;6689;53.400;12.486;2023-08-01T08:29:19;3.30;;;1.45;;
13244;SDS011;6689;53.400;12.486;2023-08-01T08:31:46;2.42;;;1.65;;
13244;SDS011;6689;53.400;12.486;2023-08-01T08:34:16;5.72;;;2.30;;
13244;SDS011;6689;53.400;12.486;2023-08-01T08:36:43;5.20;;;2.55;;
13244;SDS011;6689;53.400;12.486;2023-08-01T08:39:11;3.35;;;1.80;;
13244;SDS011;6689;53.400;12.486;2023-08-01T08:41:40;3.55;;;2.00;;
13244;SDS011;6689;53.400;12.486;2023-08-01T08:44:12;2.42;;;1.75;;
13244;SDS011;6689;53.400;12.486;2023-08-01T08:46:42;3.33;;;1.67;;
13244;SDS011;6689;53.400;12.486;2023-08-01T08:49:10;3.28;;;1.70;;
13244;SDS011;6689;53.400;12.486;2023-08-01T08:51:42;2.90;;;1.83;;
13244;SDS011;6689;53.400;12.486;2023-08-01T08:54:11;4.15;;;2.13;;
13244;SDS011;6689;53.400;12.486;2023-08-01T08:56:40;2.90;;;1.98;;
13244;SDS011;6689;53.400;12.486;2023-08-01T08:59:08;3.05;;;1.98;;
13244;SDS011;6689;53.400;12.486;2023-08-01T09:01:36;2.88;;;1.90;;
13244;SDS011;6689;53.400;12.486;2023-08-01T09:04:05;5.15;;;2.13;;
13244;SDS011;6689;53.400;12.486;2023-08-01T09:06:34;2.20;;;1.80;;
13244;SDS011;6689;53.400;12.486;2023-08-01T09:09:09;3.08;;;1.73;;
13244;SDS011;6689;53.400;12.486;2023-08-01T09:11:39;1.80;;;1.50;;
13244;SDS011;6689;53.400;12.486;2023-08-01T09:14:11;3.22;;;1.77;;
13244;SDS011;6689;53.400;12.486;2023-08-01T09:16:39;4.03;;;1.60;;
13244;SDS011;6689;53.400;12.486;2023-08-01T09:19:15;3.45;;;1.88;;
13244;SDS011;6689;53.400;12.486;2023-08-01T09:21:44;2.17;;;1.88;;
13244;SDS011;6689;53.400;12.486;2023-08-01T09:24:13;6.35;;;3.25;;
13244;SDS011;6689;53.400;12.486;2023-08-01T09:26:42;6.15;;;3.33;;
13244;SDS011;6689;53.400;12.486;2023-08-01T09:29:10;6.90;;;3.33;;
13244;SDS011;6689;53.400;12.486;2023-08-01T09:31:40;6.20;;;3.20;;
13244;SDS011;6689;53.400;12.486;2023-08-01T09:34:17;5.07;;;3.78;;
13244;SDS011;6689;53.400;12.486;2023-08-01T09:36:45;5.85;;;3.63;;
13244;SDS011;6689;53.400;12.486;2023-08-01T09:39:16;5.97;;;3.67;;
13244;SDS011;6689;53.400;12.486;2023-08-01T09:41:44;6.13;;;4.00;;
13244;SDS011;6689;53.400;12.486;2023-08-01T09:44:14;5.70;;;3.97;;
13244;SDS011;6689;53.400;12.486;2023-08-01T09:46:42;7.47;;;4.60;;
13244;SDS011;6689;53.400;12.486;2023-08-01T09:49:11;4.50;;;3.72;;
13244;SDS011;6689;53.400;12.486;2023-08-01T09:51:49;5.50;;;4.07;;
13244;SDS011;6689;53.400;12.486;2023-08-01T09:54:18;6.38;;;4.30;;
13244;SDS011;6689;53.400;12.486;2023-08-01T09:56:47;8.80;;;4.55;;
13244;SDS011;6689;53.400;12.486;2023-08-01T09:59:17;5.32;;;4.60;;
13244;SDS011;6689;53.400;12.486;2023-08-01T10:01:47;8.05;;;6.18;;
13244;SDS011;6689;53.400;12.486;2023-08-01T10:04:18;9.93;;;5.47;;
13244;SDS011;6689;53.400;12.486;2023-08-01T10:06:49;6.72;;;5.57;;
13244;SDS011;6689;53.400;12.486;2023-08-01T10:09:25;6.65;;;5.60;;
13244;SDS011;6689;53.400;12.486;2023-08-01T10:11:54;7.35;;;5.82;;
13244;SDS011;6689;53.400;12.486;2023-08-01T10:14:24;9.55;;;6.18;;
13244;SDS011;6689;53.400;12.486;2023-08-01T10:16:52;10.60;;;6.00;;
13244;SDS011;6689;53.400;12.486;2023-08-01T10:19:20;11.52;;;5.75;;
13244;SDS011;6689;53.400;12.486;2023-08-01T10:21:48;8.10;;;5.57;;
13244;SDS011;6689;53.400;12.486;2023-08-01T10:24:16;7.50;;;5.85;;
13244;SDS011;6689;53.400;12.486;2023-08-01T10:26:47;6.88;;;5.60;;
13244;SDS011;6689;53.400;12.486;2023-08-01T10:29:14;7.32;;;5.95;;
13244;SDS011;6689;53.400;12.486;2023-08-01T10:31:50;6.15;;;4.85;;
13244;SDS011;6689;53.400;12.486;2023-08-01T10:34:18;9.15;;;5.97;;
13244;SDS011;6689;53.400;12.486;2023-08-01T10:36:53;6.20;;;5.32;;
13244;SDS011;6689;53.400;12.486;2023-08-01T10:39:21;9.23;;;5.87;;
13244;SDS011;6689;53.400;12.486;2023-08-01T10:41:58;7.10;;;5.38;;
13244;SDS011;6689;53.400;12.486;2023-08-01T10:44:26;8.18;;;5.50;;
13244;SDS011;6689;53.400;12.486;2023-08-01T10:46:57;5.35;;;4.85;;
13244;SDS011;6689;53.400;12.486;2023-08-01T10:49:35;6.28;;;4.85;;
13244;SDS011;6689;53.400;12.486;2023-08-01T10:52:04;6.57;;;5.28;;
13244;SDS011;6689;53.400;12.486;2023-08-01T10:54:42;3.67;;;3.22;;
13244;SDS011;6689;53.400;12.486;2023-08-01T10:57:11;18.55;;;3.22;;
13244;SDS011;6689;53.400;12.486;2023-08-01T10:59:43;3.40;;;3.00;;
13244;SDS011;6689;53.400;12.486;2023-08-01T11:02:11;5.25;;;3.03;;
13244;SDS011;6689;53.400;12.486;2023-08-01T11:04:54;5.25;;;3.20;;
13244;SDS011;6689;53.400;12.486;2023-08-01T11:07:22;4.10;;;3.00;;
13244;SDS011;6689;53.400;12.486;2023-08-01T11:09:49;5.28;;;2.80;;
13244;SDS011;6689;53.400;12.486;2023-08-01T11:12:28;3.88;;;3.10;;
13244;SDS011;6689;53.400;12.486;2023-08-01T11:14:58;3.90;;;2.80;;
13244;SDS011;6689;53.400;12.486;2023-08-01T11:17:26;3.95;;;2.38;;
13244;SDS011;6689;53.400;12.486;2023-08-01T11:20:00;3.70;;;2.08;;
13244;SDS011;6689;53.400;12.486;2023-08-01T11:22:29;5.30;;;2.35;;
13244;SDS011;6689;53.400;12.486;2023-08-01T11:24:57;9.70;;;2.65;;
13244;SDS011;6689;53.400;12.486;2023-08-01T11:27:25;3.85;;;2.30;;
13244;SDS011;6689;53.400;12.486;2023-08-01T11:29:55;4.65;;;2.25;;
13244;SDS011;6689;53.400;12.486;2023-08-01T11:32:32;4.97;;;2.63;;
13244;SDS011;6689;53.400;12.486;2023-08-01T11:35:00;3.55;;;2.92;;
13244;SDS011;6689;53.400;12.486;2023-08-01T11:37:28;8.30;;;3.72;;
13244;SDS011;6689;53.400;12.486;2023-08-01T11:39:56;4.78;;;2.80;;
13244;SDS011;6689;53.400;12.486;2023-08-01T11:42:25;4.55;;;2.85;;
13244;SDS011;6689;53.400;12.486;2023-08-01T11:45:09;8.23;;;3.20;;
13244;SDS011;6689;53.400;12.486;2023-08-01T11:47:44;4.05;;;2.60;;
13244;SDS011;6689;53.400;12.486;2023-08-01T11:50:13;4.50;;;2.50;;
13244;SDS011;6689;53.400;12.486;2023-08-01T11:52:46;5.57;;;2.72;;
13244;SDS011;6689;53.400;12.486;2023-08-01T11:55:18;4.43;;;2.67;;
13244;SDS011;6689;53.400;12.486;2023-08-01T11:57:55;6.53;;;2.92;;
13244;SDS011;6689;53.400;12.486;2023-08-01T12:00:23;5.55;;;2.75;;
13244;SDS011;6689;53.400;12.486;2023-08-01T12:02:52;6.10;;;3.00;;
13244;SDS011;6689;53.400;12.486;2023-08-01T12:05:30;5.15;;;2.90;;
13244;SDS011;6689;53.400;12.486;2023-08-01T12:08:07;3.95;;;2.60;;
13244;SDS011;6689;53.400;12.486;2023-08-01T12:10:39;5.32;;;3.13;;
13244;SDS011;6689;53.400;12.486;2023-08-01T12:13:20;7.35;;;3.03;;
13244;SDS011;6689;53.400;12.486;2023-08-01T12:15:48;5.75;;;2.97;;
13244;SDS011;6689;53.400;12.486;2023-08-01T12:18:22;4.10;;;2.90;;
13244;SDS011;6689;53.400;12.486;2023-08-01T12:23:18;5.68;;;3.10;;
13244;SDS011;6689;53.400;12.486;2023-08-01T12:25:46;4.47;;;2.70;;
13244;SDS011;6689;53.400;12.486;2023-08-01T12:28:14;5.97;;;3.35;;
13244;SDS011;6689;53.400;12.486;2023-08-01T12:30:44;5.03;;;3.15;;
13244;SDS011;6689;53.400;12.486;2023-08-01T12:33:11;8.02;;;3.17;;
13244;SDS011;6689;53.400;12.486;2023-08-01T12:35:39;4.75;;;2.78;;
13244;SDS011;6689;53.400;12.486;2023-08-01T12:38:07;6.60;;;3.20;;
13244;SDS011;6689;53.400;12.486;2023-08-01T12:40:34;5.28;;;3.38;;
13244;SDS011;6689;53.400;12.486;2023-08-01T12:43:02;6.50;;;3.30;;
13244;SDS011;6689;53.400;12.486;2023-08-01T12:45:30;5.38;;;3.05;;
13244;SDS011;6689;53.400;12.486;2023-08-01T12:47:59;4.47;;;3.05;;
13244;SDS011;6689;53.400;12.486;2023-08-01T12:50:26;5.55;;;3.30;;
13244;SDS011;6689;53.400;12.486;2023-08-01T12:52:53;7.43;;;2.78;;
13244;SDS011;6689;53.400;12.486;2023-08-01T12:55:21;5.05;;;2.60;;
13244;SDS011;6689;53.400;12.486;2023-08-01T12:57:48;3.90;;;2.58;;
13244;SDS011;6689;53.400;12.486;2023-08-01T13:00:16;3.35;;;2.60;;
13244;SDS011;6689;53.400;12.486;2023-08-01T13:02:43;7.50;;;2.80;;
13244;SDS011;6689;53.400;12.486;2023-08-01T13:05:14;6.20;;;2.85;;
13244;SDS011;6689;53.400;12.486;2023-08-01T13:07:41;4.65;;;2.70;;
13244;SDS011;6689;53.400;12.486;2023-08-01T13:10:09;5.03;;;2.80;;
13244;SDS011;6689;53.400;12.486;2023-08-01T13:12:37;9.77;;;3.30;;
13244;SDS011;6689;53.400;12.486;2023-08-01T13:15:04;11.18;;;2.10;;
13244;SDS011;6689;53.400;12.486;2023-08-01T13:17:32;7.72;;;1.58;;
13244;SDS011;6689;53.400;12.486;2023-08-01T13:20:00;3.58;;;1.42;;
13244;SDS011;6689;53.400;12.486;2023-08-01T13:22:30;2.03;;;1.27;;
13244;SDS011;6689;53.400;12.486;2023-08-01T13:24:57;1.65;;;1.10;;
13244;SDS011;6689;53.400;12.486;2023-08-01T13:27:24;2.95;;;1.17;;
13244;SDS011;6689;53.400;12.486;2023-08-01T13:29:51;2.03;;;0.90;;
13244;SDS011;6689;53.400;12.486;2023-08-01T13:32:19;2.95;;;1.02;;
13244;SDS011;6689;53.400;12.486;2023-08-01T13:34:47;2.47;;;1.00;;
13244;SDS011;6689;53.400;12.486;2023-08-01T13:37:14;1.35;;;1.05;;
13244;SDS011;6689;53.400;12.486;2023-08-01T13:39:42;2.03;;;0.95;;
13244;SDS011;6689;53.400;12.486;2023-08-01T13:42:11;1.65;;;1.10;;
13244;SDS011;6689;53.400;12.486;2023-08-01T13:44:38;4.53;;;1.20;;
13244;SDS011;6689;53.400;12.486;2023-08-01T13:47:07;1.67;;;0.75;;
13244;SDS011;6689;53.400;12.486;2023-08-01T13:49:34;3.90;;;1.20;;
13244;SDS011;6689;53.400;12.486;2023-08-01T13:52:01;1.02;;;0.80;;
13244;SDS011;6689;53.400;12.486;2023-08-01T13:54:30;3.40;;;1.40;;
13244;SDS011;6689;53.400;12.486;2023-08-01T13:56:59;2.47;;;1.10;;
13244;SDS011;6689;53.400;12.486;2023-08-01T13:59:27;6.20;;;1.33;;
13244;SDS011;6689;53.400;12.486;2023-08-01T14:02:03;2.13;;;1.23;;
13244;SDS011;6689;53.400;12.486;2023-08-01T14:04:31;1.70;;;0.90;;
13244;SDS011;6689;53.400;12.486;2023-08-01T14:07:02;3.85;;;1.25;;
13244;SDS011;6689;53.400;12.486;2023-08-01T14:09:29;3.15;;;1.48;;
13244;SDS011;6689;53.400;12.486;2023-08-01T14:12:02;2.92;;;1.02;;
13244;SDS011;6689;53.400;12.486;2023-08-01T14:14:32;4.25;;;1.00;;
13244;SDS011;6689;53.400;12.486;2023-08-01T14:16:59;4.70;;;1.60;;
13244;SDS011;6689;53.400;12.486;2023-08-01T14:19:27;1.98;;;1.10;;
13244;SDS011;6689;53.400;12.486;2023-08-01T14:21:55;2.63;;;1.40;;
13244;SDS011;6689;53.400;12.486;2023-08-01T14:24:23;3.17;;;1.70;;
13244;SDS011;6689;53.400;12.486;2023-08-01T14:26:50;4.28;;;1.90;;
13244;SDS011;6689;53.400;12.486;2023-08-01T14:29:19;4.75;;;1.63;;
13244;SDS011;6689;53.400;12.486;2023-08-01T14:31:47;2.20;;;1.60;;
13244;SDS011;6689;53.400;12.486;2023-08-01T14:34:16;4.78;;;1.00;;
13244;SDS011;6689;53.400;12.486;2023-08-01T14:36:45;4.03;;;1.20;;
13244;SDS011;6689;53.400;12.486;2023-08-01T14:39:12;2.88;;;1.38;;
13244;SDS011;6689;53.400;12.486;2023-08-01T14:41:39;3.38;;;0.80;;
13244;SDS011;6689;53.400;12.486;2023-08-01T14:44:08;2.05;;;1.30;;
13244;SDS011;6689;53.400;12.486;2023-08-01T14:46:37;1.95;;;1.10;;
13244;SDS011;6689;53.400;12.486;2023-08-01T14:49:04;1.60;;;1.10;;
13244;SDS011;6689;53.400;12.486;2023-08-01T14:51:32;4.57;;;1.50;;
13244;SDS011;6689;53.400;12.486;2023-08-01T14:54:01;1.63;;;1.10;;
13244;SDS011;6689;53.400;12.486;2023-08-01T14:56:28;3.22;;;1.48;;
13244;SDS011;6689;53.400;12.486;2023-08-01T14:58:56;1.75;;;0.98;;
13244;SDS011;6689;53.400;12.486;2023-08-01T15:01:25;2.72;;;1.50;;